Latest Coastal Weather Observations for Lucinda

IDQ60701

Issued at 11:32 pm EST Monday 8 August 2022 (issued every 10 minutes, with the page automatically refreshed every 10 minutes)

About coastal observations | Map of coastal stations | Coastal observations for QLD | Marine services | Other Formats
Station Details ID: 032141 Name: LUCINDA POINT Lat: -18.52 Lon: 146.39 Height: 10.0 m
Data from the previous 72 hours. | See also: Recent months at Lucinda
Date/Time
EST
Wind Sea
Height
m
Swell Vis
km
Cloud Weather Temp
°C
Press
MSL
hPa
Rain since
9am
mm
Dir  Spd
kts
Gust
kts
Height
m
Period
s
Dir
08/11:30pm ESE 16 21 - - - - - - - - 1017.2 -
08/11:00pm ESE 13 17 - - - - - - - - 1017.4 -
08/10:30pm ESE 11 16 - - - - - - - - 1017.4 -
08/10:00pm ESE 11 17 - - - - - - - - 1017.3 -
08/09:30pm ESE 11 15 - - - - - - - - 1017.1 -
08/09:00pm ESE 11 15 - - - - - - - - 1017.0 -
08/08:30pm ESE 9 15 - - - - - - - - 1016.9 -
08/08:00pm ESE 9 14 - - - - - - - - 1016.6 -
08/07:30pm ESE 10 16 - - - - - - - - 1016.4 -
08/07:00pm ESE 11 17 - - - - - - - - 1016.2 -
08/06:30pm ESE 11 15 - - - - - - - - 1015.9 -
08/06:00pm ESE 10 15 - - - - - - - - 1015.7 -
08/05:30pm ESE 12 16 - - - - - - - - 1015.3 -
08/05:00pm ESE 11 16 - - - - - - - - 1015.2 -
08/04:30pm ESE 11 14 - - - - - - - - 1015.0 -
08/04:00pm ESE 10 15 - - - - - - - - 1014.8 -
08/03:30pm ESE 12 16 - - - - - - - - 1014.7 -
08/03:00pm ESE 14 17 - - - - - - - - 1014.8 -
08/02:30pm ESE 15 18 - - - - - - - - 1014.9 -
08/02:00pm ESE 14 18 - - - - - - - - 1015.3 -
08/01:30pm SE 16 19 - - - - - - - - 1015.7 -
08/01:00pm SE 10 16 - - - - - - - - 1016.1 -
08/12:30pm S 12 15 - - - - - - - - 1016.4 -
08/12:00pm S 12 17 - - - - - - - - 1016.7 -
08/11:30am SE 17 21 - - - - - - - - 1016.9 -
08/11:00am SE 19 21 - - - - - - - - 1017.0 -
08/10:30am S 13 16 - - - - - - - - 1017.3 -
08/10:00am S 13 17 - - - - - - - - 1017.6 -
08/09:30am S 13 18 - - - - - - - - 1017.5 -
08/09:00am SE 19 21 - - - - - - - - 1017.2 -
08/08:30am ESE 17 21 - - - - - - - - 1017.1 -
08/08:00am SE 16 21 - - - - - - - - 1016.8 -
08/07:30am SE 16 19 - - - - - - - - 1016.5 -
08/07:00am SE 17 20 - - - - - - - - 1016.1 -
08/06:30am SE 15 19 - - - - - - - - 1015.6 -
08/06:00am SE 15 19 - - - - - - - - 1015.4 -
08/05:30am SE 16 19 - - - - - - - - 1015.0 -
08/05:00am ESE 15 19 - - - - - - - - 1014.7 -
08/04:30am ESE 15 17 - - - - - - - - 1014.4 -
08/04:00am SE 14 17 - - - - - - - - 1014.4 -
08/03:30am ESE 15 19 - - - - - - - - 1014.4 -
08/03:00am SE 8 12 - - - - - - - - 1014.6 -
08/02:30am SE 11 14 - - - - - - - - 1014.8 -
08/02:00am SE 9 14 - - - - - - - - 1014.8 -
08/01:30am SSE 7 14 - - - - - - - - 1015.1 -
08/01:00am S 7 7 - - - - - - - - 1015.3 -
08/12:30am SSW 6 6 - - - - - - - - 1015.6 -
08/12:00am S 4 7 - - - - - - - - 1015.7 -
 
Date/Time
EST
Wind Sea
Height
m
Swell Vis
km
Cloud Weather Temp
°C
Press
MSL
hPa
Rain since
9am
mm
Dir  Spd
kts
Gust
kts
Height
m
Period
s
Dir
07/11:30pm SSW 5 6 - - - - - - - - 1015.8 -
07/11:00pm S 6 7 - - - - - - - - 1015.8 -
07/10:30pm S 3 5 - - - - - - - - 1015.9 -
07/10:00pm SSE 3 4 - - - - - - - - 1015.7 -
07/09:30pm ESE 5 6 - - - - - - - - 1015.5 -
07/09:00pm ESE 3 4 - - - - - - - - 1015.4 -
07/08:30pm ESE 4 5 - - - - - - - - 1015.1 -
07/08:00pm ESE 5 7 - - - - - - - - 1015.0 -
07/07:30pm ESE 5 6 - - - - - - - - 1014.7 -
07/07:00pm E 4 5 - - - - - - - - 1014.3 -
07/06:30pm CALM 0 0 - - - - - - - - 1014.1 -
07/06:00pm N 3 4 - - - - - - - - 1013.6 -
07/05:30pm CALM 0 0 - - - - - - - - 1013.4 -
07/05:00pm CALM 0 0 - - - - - - - - 1013.3 -
07/04:30pm N 5 7 - - - - - - - - 1013.2 -
07/04:00pm S 2 3 - - - - - - - - 1013.3 -
07/03:30pm S 4 5 - - - - - - - - 1013.4 -
07/03:00pm CALM 0 4 - - - - - - - - 1013.5 -
07/02:30pm S 3 5 - - - - - - - - 1013.7 -
07/02:00pm S 6 7 - - - - - - - - 1014.0 -
07/01:30pm S 7 8 - - - - - - - - 1014.4 -
07/01:00pm S 7 8 - - - - - - - - 1014.7 -
07/12:30pm S 8 9 - - - - - - - - 1015.2 -
07/12:00pm S 5 7 - - - - - - - - 1015.5 -
07/11:30am SSW 5 6 - - - - - - - - 1015.9 -
07/11:00am S 6 7 - - - - - - - - 1016.2 -
07/10:30am S 6 7 - - - - - - - - 1016.4 -
07/10:00am S 6 8 - - - - - - - - 1016.6 -
07/09:30am S 7 9 - - - - - - - - 1016.7 -
07/09:00am S 6 8 - - - - - - - - 1016.6 -
07/08:30am S 9 11 - - - - - - - - 1016.3 -
07/08:00am S 8 10 - - - - - - - - 1016.0 -
07/07:30am S 8 10 - - - - - - - - 1015.7 -
07/07:00am S 8 10 - - - - - - - - 1015.4 -
07/06:30am S 9 11 - - - - - - - - 1015.0 -
07/06:00am S 5 6 - - - - - - - - 1014.5 -
07/05:30am S 6 8 - - - - - - - - 1014.1 -
07/05:00am S 10 12 - - - - - - - - 1013.9 -
07/04:30am S 7 9 - - - - - - - - 1013.6 -
07/04:00am SSW 5 6 - - - - - - - - 1013.4 -
07/03:30am SW 6 7 - - - - - - - - 1013.4 -
07/03:00am WSW 1 4 - - - - - - - - 1013.1 -
07/02:30am SSW 5 6 - - - - - - - - 1013.5 -
07/02:00am SSW 5 6 - - - - - - - - 1013.8 -
07/01:30am S 7 8 - - - - - - - - 1014.0 -
07/01:00am S 5 6 - - - - - - - - 1014.0 -
07/12:30am SSE 1 3 - - - - - - - - 1014.1 -
07/12:00am S 4 5 - - - - - - - - 1014.2 -
 
Date/Time
EST
Wind Sea
Height
m
Swell Vis
km
Cloud Weather Temp
°C
Press
MSL
hPa
Rain since
9am
mm
Dir  Spd
kts
Gust
kts
Height
m
Period
s
Dir
06/11:30pm SW 3 4 - - - - - - - - 1014.1 -
06/11:00pm WSW 2 4 - - - - - - - - 1014.0 -
06/10:30pm CALM 0 0 - - - - - - - - 1013.9 -
06/10:00pm NNW 3 4 - - - - - - - - 1013.6 -
06/09:30pm N 4 5 - - - - - - - - 1013.2 -
06/09:00pm N 5 5 - - - - - - - - 1013.0 -
06/08:30pm N 4 5 - - - - - - - - 1012.8 -
06/08:00pm NNE 5 5 - - - - - - - - 1012.5 -
06/07:30pm ENE 5 6 - - - - - - - - 1011.9 -
06/07:00pm ESE 6 7 - - - - - - - - 1011.4 -
06/06:30pm ENE 5 7 - - - - - - - - 1011.1 -
06/06:00pm NE 7 8 - - - - - - - - 1010.6 -
06/05:30pm NE 9 9 - - - - - - - - 1010.4 -
06/05:00pm NE 9 10 - - - - - - - - 1010.3 -
06/04:30pm NE 9 9 - - - - - - - - 1010.1 -
06/04:00pm NE 9 10 - - - - - - - - 1010.1 -
06/03:30pm NE 13 14 - - - - - - - - 1009.9 -
06/03:00pm NNE 11 14 - - - - - - - - 1010.3 -
06/02:30pm NNE 11 13 - - - - - - - - 1010.4 -
06/02:00pm NNE 11 13 - - - - - - - - 1010.8 -
06/01:30pm NNE 12 14 - - - - - - - - 1011.0 -
06/01:00pm NNE 11 12 - - - - - - - - 1011.4 -
06/12:30pm NNE 9 11 - - - - - - - - 1011.8 -
06/12:00pm N 10 11 - - - - - - - - 1012.2 -
06/11:30am N 6 7 - - - - - - - - 1012.8 -
06/11:00am WNW 4 5 - - - - - - - - 1013.3 -
06/10:30am W 5 7 - - - - - - - - 1013.8 -
06/10:00am NW 5 6 - - - - - - - - 1013.8 -
06/09:30am WNW 5 8 - - - - - - - - 1014.1 -
06/09:00am WSW 7 9 - - - - - - - - 1014.1 -
06/08:30am W 6 8 - - - - - - - - 1013.9 -
06/08:00am WSW 7 9 - - - - - - - - 1013.8 -
06/07:30am WSW 8 9 - - - - - - - - 1013.4 -
06/07:00am WSW 6 7 - - - - - - - - 1013.1 -
06/06:30am WSW 7 9 - - - - - - - - 1012.9 -
06/06:00am WSW 7 8 - - - - - - - - 1012.4 -
06/05:30am W 6 9 - - - - - - - - 1012.2 -
06/05:00am WNW 6 8 - - - - - - - - 1011.9 -
06/04:30am NW 10 13 - - - - - - - - 1011.8 -
06/04:00am NW 6 8 - - - - - - - - 1011.9 -
06/03:30am NW 6 8 - - - - - - - - 1012.0 -
06/03:00am NNW 8 11 - - - - - - - - 1012.0 -
06/02:30am NW 7 9 - - - - - - - - 1012.2 -
06/02:00am NNW 4 5 - - - - - - - - 1012.2 -
06/01:30am NW 4 6 - - - - - - - - 1012.3 -
06/01:00am NW 6 8 - - - - - - - - 1012.5 -
06/12:30am NNW 12 16 - - - - - - - - 1012.7 -
06/12:00am NNW 10 11 - - - - - - - - 1012.8 -

Other formats

Comma delimited format used in spreadsheet applications
http://www.bom.gov.au/fwo/IDQ60701/IDQ60701.94295.axf

JavaScript Object Notation format (JSON) in row-major order
http://www.bom.gov.au/fwo/IDQ60701/IDQ60701.94295.json

Data quality

Most of these data are generated automatically and are frequently updated. Quality checks on data are not normally performed. It is possible for incorrect values to appear. Refer to information at About Latest Weather Observations and please check the disclaimer before using these data.